createdAt,value
2023-01-27T00:01:05.747Z,29.38
2023-01-27T00:03:33.335Z,42.33
2023-01-27T00:06:01.334Z,31.45
2023-01-27T00:08:30.468Z,22.77
2023-01-27T00:11:20.068Z,25.13
2023-01-27T00:13:47.480Z,20.90
2023-01-27T00:16:15.788Z,19.95
2023-01-27T00:18:43.069Z,25.73
2023-01-27T00:21:28.502Z,18.27
2023-01-27T00:24:14.168Z,23.55
2023-01-27T00:26:41.268Z,17.35
2023-01-27T00:29:08.152Z,16.85
2023-01-27T00:31:53.969Z,26.20
2023-01-27T00:34:20.972Z,18.15
2023-01-27T00:36:50.755Z,16.13
2023-01-27T00:39:17.690Z,18.23
2023-01-27T00:41:44.747Z,17.63
2023-01-27T00:44:13.375Z,17.08
2023-01-27T00:46:42.244Z,26.52
2023-01-27T00:49:11.361Z,24.85
2023-01-27T00:51:38.400Z,24.92
2023-01-27T00:54:05.903Z,37.92
2023-01-27T00:56:33.043Z,33.90
2023-01-27T00:59:01.149Z,26.10
2023-01-27T01:01:28.905Z,25.95
2023-01-27T01:03:56.586Z,28.65
2023-01-27T01:06:23.615Z,28.98
2023-01-27T01:08:54.128Z,28.35
2023-01-27T01:11:24.079Z,22.83
2023-01-27T01:13:51.044Z,30.80
2023-01-27T01:16:22.835Z,29.90
2023-01-27T01:18:49.987Z,25.90
2023-01-27T01:21:17.643Z,41.03
2023-01-27T01:23:46.351Z,32.80
2023-01-27T01:26:16.330Z,23.42
2023-01-27T01:28:45.654Z,33.05
2023-01-27T01:31:20.807Z,42.10
2023-01-27T01:33:49.206Z,31.25
2023-01-27T01:36:19.877Z,29.02
2023-01-27T01:38:47.872Z,32.47
2023-01-27T01:41:19.426Z,32.30
2023-01-27T01:43:46.849Z,29.92
2023-01-27T01:46:14.683Z,22.80
2023-01-27T01:48:59.810Z,28.17
2023-01-27T01:51:44.072Z,28.85
2023-01-27T01:54:28.703Z,32.47
2023-01-27T01:57:08.227Z,26.80
2023-01-27T01:59:41.824Z,27.08
2023-01-27T02:02:13.771Z,27.48
2023-01-27T02:04:58.211Z,30.45
2023-01-27T02:07:52.673Z,37.05
2023-01-27T02:10:19.821Z,40.30
2023-01-27T02:12:46.944Z,40.75
2023-01-27T02:15:14.568Z,38.05
2023-01-27T02:17:42.146Z,36.85
2023-01-27T02:20:29.927Z,28.75
2023-01-27T02:23:08.702Z,33.65
2023-01-27T02:25:35.793Z,32.08
2023-01-27T02:28:06.328Z,38.03
2023-01-27T02:30:34.073Z,31.33
2023-01-27T02:33:01.624Z,54.72
2023-01-27T02:35:41.825Z,37.60
2023-01-27T02:38:11.977Z,32.92
2023-01-27T02:40:40.586Z,43.78
2023-01-27T02:43:07.916Z,38.38
2023-01-27T02:45:35.244Z,61.03
2023-01-27T02:48:03.260Z,34.00
2023-01-27T02:50:30.293Z,47.45
2023-01-27T02:52:57.364Z,44.40
2023-01-27T02:55:24.580Z,27.92
2023-01-27T02:57:51.555Z,50.25
2023-01-27T03:00:19.174Z,37.17
2023-01-27T03:02:46.426Z,23.25
2023-01-27T03:05:15.291Z,28.88
2023-01-27T03:07:42.846Z,26.13
2023-01-27T03:10:10.729Z,26.38
2023-01-27T03:12:37.756Z,25.70
2023-01-27T03:15:24.216Z,23.05
2023-01-27T03:18:09.604Z,21.55
2023-01-27T03:20:36.907Z,28.52
2023-01-27T03:23:04.735Z,31.15
2023-01-27T03:25:32.060Z,37.40
2023-01-27T03:27:59.966Z,29.25
2023-01-27T03:30:31.490Z,31.25
2023-01-27T03:32:59.456Z,28.58
2023-01-27T03:35:34.116Z,16.52
2023-01-27T03:38:20.189Z,18.83
2023-01-27T03:41:05.672Z,18.92
2023-01-27T03:43:51.019Z,24.75
2023-01-27T03:46:20.710Z,17.45
2023-01-27T03:48:56.324Z,18.20
2023-01-27T03:51:25.943Z,23.45
2023-01-27T03:53:53.700Z,23.73
2023-01-27T03:56:22.386Z,20.40
2023-01-27T03:58:50.663Z,17.52
2023-01-27T04:01:21.943Z,18.85
2023-01-27T04:04:09.424Z,14.50
2023-01-27T04:07:00.942Z,11.73
2023-01-27T04:09:33.059Z,18.00
2023-01-27T04:12:05.134Z,15.68
2023-01-27T04:14:43.918Z,13.52
2023-01-27T04:17:17.296Z,15.55
2023-01-27T04:19:44.816Z,13.65
2023-01-27T04:22:16.270Z,12.35
2023-01-27T04:24:43.621Z,12.30
2023-01-27T04:27:15.436Z,11.88
2023-01-27T04:29:43.500Z,11.18
2023-01-27T04:32:13.184Z,10.20
2023-01-27T04:34:41.902Z,13.20
2023-01-27T04:37:10.667Z,10.77
2023-01-27T04:39:38.538Z,9.40
2023-01-27T04:42:05.988Z,7.32
2023-01-27T04:44:33.278Z,10.93
2023-01-27T04:47:00.315Z,11.60
2023-01-27T04:49:27.505Z,10.05
2023-01-27T04:51:55.376Z,10.73
2023-01-27T04:54:22.407Z,12.80
2023-01-27T04:57:03.724Z,9.02
2023-01-27T04:59:30.811Z,11.68
2023-01-27T05:01:59.472Z,12.85
2023-01-27T05:04:27.382Z,13.23
2023-01-27T05:06:55.114Z,12.07
2023-01-27T05:09:23.538Z,12.57
2023-01-27T05:11:50.991Z,11.23
2023-01-27T05:14:18.064Z,11.75
2023-01-27T05:16:45.828Z,13.88
2023-01-27T05:19:13.113Z,13.52
2023-01-27T05:21:40.881Z,12.75
2023-01-27T05:24:08.084Z,13.10
2023-01-27T05:26:35.146Z,13.88
2023-01-27T05:29:02.239Z,14.43
2023-01-27T05:31:34.478Z,16.38
2023-01-27T05:34:02.493Z,12.70
2023-01-27T05:36:30.232Z,12.95
2023-01-27T05:38:58.724Z,17.08
2023-01-27T05:41:25.872Z,14.48
2023-01-27T05:43:55.623Z,14.20
2023-01-27T05:46:26.529Z,13.27
2023-01-27T05:48:56.965Z,16.58
2023-01-27T05:51:25.706Z,17.10
2023-01-27T05:53:55.031Z,13.55
2023-01-27T05:56:23.107Z,13.10
2023-01-27T05:58:50.555Z,17.50
2023-01-27T06:01:22.515Z,15.40
2023-01-27T06:03:50.522Z,19.02
2023-01-27T06:06:20.581Z,16.60
2023-01-27T06:08:48.734Z,15.55
2023-01-27T06:11:18.420Z,16.88
2023-01-27T06:13:45.609Z,15.38
2023-01-27T06:16:19.954Z,17.85
2023-01-27T06:18:48.934Z,17.42
2023-01-27T06:21:18.156Z,23.55
2023-01-27T06:23:45.185Z,21.67
2023-01-27T06:26:18.150Z,19.70
2023-01-27T06:28:45.708Z,14.80
2023-01-27T06:31:19.821Z,15.65
2023-01-27T06:33:47.138Z,17.73
2023-01-27T06:36:17.857Z,19.40
2023-01-27T06:38:45.980Z,20.45
2023-01-27T06:41:13.329Z,16.60
2023-01-27T06:43:40.356Z,18.67
2023-01-27T06:46:07.528Z,20.85
2023-01-27T06:48:35.167Z,18.55
2023-01-27T06:51:02.492Z,19.73
2023-01-27T06:53:29.566Z,15.40
2023-01-27T06:56:01.647Z,16.70
2023-01-27T06:58:32.203Z,19.50
2023-01-27T07:00:59.057Z,19.10
2023-01-27T07:03:26.954Z,17.33
2023-01-27T07:05:54.181Z,14.95
2023-01-27T07:08:21.060Z,15.30
2023-01-27T07:10:48.293Z,17.95
2023-01-27T07:13:15.564Z,18.23
2023-01-27T07:15:43.269Z,21.70
2023-01-27T07:18:12.350Z,18.92
2023-01-27T07:20:40.557Z,14.05
2023-01-27T07:23:09.251Z,16.23
2023-01-27T07:25:36.696Z,19.52
2023-01-27T07:28:04.465Z,16.70
2023-01-27T07:30:34.040Z,17.40
2023-01-27T07:33:10.690Z,13.70
2023-01-27T07:35:39.285Z,25.00
2023-01-27T07:38:07.066Z,17.33
2023-01-27T07:40:34.919Z,21.73
2023-01-27T07:43:05.158Z,15.15
2023-01-27T07:45:32.149Z,21.33
2023-01-27T07:48:04.787Z,22.77
2023-01-27T07:50:34.067Z,16.48
2023-01-27T07:53:02.518Z,19.60
2023-01-27T07:55:30.666Z,17.48
2023-01-27T07:57:58.137Z,18.80
2023-01-27T08:00:25.611Z,18.45
2023-01-27T08:02:54.352Z,16.15
2023-01-27T08:05:25.577Z,17.15
2023-01-27T08:07:56.599Z,18.25
2023-01-27T08:10:25.669Z,17.40
2023-01-27T08:12:52.867Z,14.52
2023-01-27T08:15:19.941Z,15.45
2023-01-27T08:17:58.156Z,14.45
2023-01-27T08:20:30.035Z,15.77
2023-01-27T08:22:57.091Z,15.68
2023-01-27T08:25:24.971Z,16.58
2023-01-27T08:27:56.858Z,16.13
2023-01-27T08:30:24.211Z,19.88
2023-01-27T08:32:51.156Z,22.02
2023-01-27T08:35:18.686Z,17.83
2023-01-27T08:37:48.652Z,16.33
2023-01-27T08:40:17.088Z,14.13
2023-01-27T08:42:44.049Z,16.98
2023-01-27T08:45:11.514Z,17.08
2023-01-27T08:47:38.857Z,13.30
2023-01-27T08:50:06.350Z,14.13
2023-01-27T08:52:33.780Z,20.10
2023-01-27T08:55:00.871Z,14.38
2023-01-27T08:57:27.807Z,13.60
2023-01-27T08:59:55.118Z,10.65
2023-01-27T09:02:24.492Z,11.40
2023-01-27T09:04:51.812Z,9.63
2023-01-27T09:07:19.778Z,9.68
2023-01-27T09:09:51.323Z,12.32
2023-01-27T09:12:23.044Z,11.13
2023-01-27T09:14:50.106Z,12.65
2023-01-27T09:17:19.768Z,9.32
2023-01-27T09:19:47.561Z,11.82
2023-01-27T09:22:14.627Z,8.68
2023-01-27T09:24:41.719Z,12.18
2023-01-27T09:27:09.070Z,11.60
2023-01-27T09:29:36.904Z,9.93
2023-01-27T09:32:04.446Z,8.60
2023-01-27T09:34:31.673Z,13.70
2023-01-27T09:37:05.903Z,9.23
2023-01-27T09:39:37.221Z,12.77
2023-01-27T09:42:22.415Z,9.90
2023-01-27T09:45:29.412Z,11.60
2023-01-27T09:48:10.406Z,16.83
2023-01-27T09:50:47.094Z,9.80
2023-01-27T09:53:23.297Z,11.07
2023-01-27T09:56:02.847Z,10.05
2023-01-27T09:58:55.003Z,15.70
2023-01-27T10:01:45.036Z,12.73
2023-01-27T10:04:50.498Z,13.52
2023-01-27T10:07:28.824Z,11.82
2023-01-27T10:10:50.091Z,13.65
2023-01-27T10:13:37.305Z,13.98
2023-01-27T10:16:22.560Z,22.25
2023-01-27T10:19:10.232Z,13.00
2023-01-27T10:22:05.343Z,13.68
2023-01-27T10:25:17.989Z,11.15
2023-01-27T10:27:49.480Z,9.15
2023-01-27T10:30:37.196Z,13.35
2023-01-27T10:33:22.676Z,11.23
2023-01-27T10:35:54.260Z,9.98
2023-01-27T10:38:58.124Z,9.52
2023-01-27T10:41:41.649Z,14.13
2023-01-27T10:47:12.696Z,10.55
2023-01-27T10:49:43.739Z,12.02
2023-01-27T10:52:21.026Z,11.38
2023-01-27T10:55:22.002Z,11.35
2023-01-27T10:58:00.636Z,9.30
2023-01-27T11:03:33.707Z,13.63
2023-01-27T11:06:08.415Z,12.85
2023-01-27T11:08:40.781Z,12.82
2023-01-27T11:11:28.646Z,16.95
2023-01-27T11:14:05.941Z,8.43
2023-01-27T11:16:37.750Z,9.43
2023-01-27T11:19:29.433Z,13.05
2023-01-27T11:22:07.833Z,9.35
2023-01-27T11:25:23.419Z,10.63
2023-01-27T11:28:34.417Z,12.18
2023-01-27T11:31:53.728Z,12.50
2023-01-27T11:34:41.024Z,13.30
2023-01-27T11:37:23.166Z,12.90
2023-01-27T11:39:50.157Z,11.77
2023-01-27T11:42:18.169Z,12.40
2023-01-27T11:44:45.985Z,11.95
2023-01-27T11:47:28.477Z,13.82
2023-01-27T11:49:57.821Z,10.03
2023-01-27T11:52:29.139Z,10.82
2023-01-27T11:55:14.623Z,14.25
2023-01-27T11:58:46.955Z,13.00
2023-01-27T12:01:19.071Z,13.35
2023-01-27T12:04:04.741Z,12.07
2023-01-27T12:07:28.999Z,9.88
2023-01-27T12:09:56.276Z,10.95
2023-01-27T12:12:28.591Z,9.00
2023-01-27T12:15:00.429Z,11.90
2023-01-27T12:17:59.673Z,10.23
2023-01-27T12:20:47.764Z,10.77
2023-01-27T12:23:23.235Z,9.77
2023-01-27T12:25:59.739Z,10.82
2023-01-27T12:28:38.948Z,7.20
2023-01-27T12:31:31.771Z,8.60
2023-01-27T12:34:18.852Z,7.85
2023-01-27T12:36:46.519Z,6.78
2023-01-27T12:39:57.372Z,6.55
2023-01-27T12:42:49.045Z,7.00
2023-01-27T12:45:22.135Z,6.97
2023-01-27T12:48:14.877Z,6.72
2023-01-27T12:51:18.172Z,7.22
2023-01-27T12:53:45.193Z,6.70
2023-01-27T12:56:21.590Z,7.35
2023-01-27T12:58:54.599Z,7.72
2023-01-27T13:01:34.753Z,8.05
2023-01-27T13:04:09.046Z,7.95
2023-01-27T13:07:08.399Z,6.85
2023-01-27T13:10:02.793Z,7.78
2023-01-27T13:12:37.530Z,7.97
2023-01-27T13:15:22.667Z,8.02
2023-01-27T13:17:55.929Z,7.40
2023-01-27T13:23:02.401Z,7.60
2023-01-27T13:25:44.564Z,8.25
2023-01-27T13:28:20.352Z,9.27
2023-01-27T13:30:55.068Z,8.45
2023-01-27T13:33:38.170Z,8.43
2023-01-27T13:36:13.066Z,8.27
2023-01-27T13:39:02.836Z,7.70
2023-01-27T13:41:46.740Z,8.10
2023-01-27T13:44:45.650Z,8.07
2023-01-27T13:47:27.080Z,8.13
2023-01-27T13:50:20.480Z,8.13
2023-01-27T13:52:54.576Z,8.27
2023-01-27T13:55:40.939Z,8.20
2023-01-27T13:58:39.053Z,7.68
2023-01-27T14:01:30.312Z,9.13
2023-01-27T14:04:54.978Z,6.82
2023-01-27T14:07:47.750Z,7.38
2023-01-27T14:10:40.795Z,8.70
2023-01-27T14:13:42.488Z,6.28
2023-01-27T14:16:34.891Z,7.47
2023-01-27T14:19:31.364Z,6.05
2023-01-27T14:22:13.164Z,6.05
2023-01-27T14:24:49.820Z,6.82
2023-01-27T14:28:01.491Z,7.70
2023-01-27T14:30:44.554Z,7.40
2023-01-27T14:33:38.026Z,6.78
2023-01-27T14:36:14.650Z,6.68
2023-01-27T14:38:51.714Z,7.70
2023-01-27T14:41:52.719Z,10.80
2023-01-27T14:45:18.710Z,6.90
2023-01-27T14:48:07.517Z,7.47
2023-01-27T14:51:14.180Z,7.43
2023-01-27T14:53:57.036Z,6.03
2023-01-27T14:56:42.271Z,6.53
2023-01-27T14:59:47.179Z,7.00
2023-01-27T15:02:22.798Z,6.22
2023-01-27T15:05:22.626Z,6.20
2023-01-27T15:08:19.829Z,5.63
2023-01-27T15:11:31.485Z,6.05
2023-01-27T15:14:35.858Z,7.88
2023-01-27T15:17:08.494Z,7.65
2023-01-27T15:19:47.117Z,9.20
2023-01-27T15:22:46.916Z,7.28
2023-01-27T15:25:33.290Z,6.63
2023-01-27T15:28:02.363Z,6.45
2023-01-27T15:30:35.252Z,5.88
2023-01-27T15:33:03.011Z,6.30
2023-01-27T15:35:36.734Z,6.43
2023-01-27T15:38:21.452Z,6.25
2023-01-27T15:41:01.820Z,5.53
2023-01-27T15:43:32.726Z,6.20
2023-01-27T15:46:42.193Z,6.82
2023-01-27T15:49:22.137Z,4.00
2023-01-27T15:51:54.193Z,4.75
2023-01-27T15:54:33.251Z,5.85
2023-01-27T15:57:05.047Z,5.70
2023-01-27T15:59:58.764Z,8.30
2023-01-27T16:02:30.125Z,8.82
2023-01-27T16:05:38.865Z,5.88
2023-01-27T16:08:13.726Z,5.97
2023-01-27T16:10:41.436Z,6.63
2023-01-27T16:13:28.826Z,5.55
2023-01-27T16:16:19.309Z,6.55
2023-01-27T16:19:18.499Z,5.88
2023-01-27T16:22:06.013Z,7.60
2023-01-27T16:24:45.218Z,5.78
2023-01-27T16:27:36.301Z,5.25
2023-01-27T16:30:26.463Z,6.00
2023-01-27T16:33:16.850Z,5.60
2023-01-27T16:36:29.753Z,7.22
2023-01-27T16:39:06.944Z,6.53
2023-01-27T16:41:39.226Z,6.22
2023-01-27T16:44:41.189Z,5.55
2023-01-27T16:47:24.561Z,4.53
2023-01-27T16:49:55.978Z,5.80
2023-01-27T16:52:41.161Z,4.47
2023-01-27T16:55:22.199Z,3.90
2023-01-27T16:57:50.955Z,4.20
2023-01-27T17:00:29.420Z,4.47
2023-01-27T17:03:00.082Z,8.07
2023-01-27T17:05:27.938Z,4.50
2023-01-27T17:08:12.965Z,5.70
2023-01-27T17:11:04.280Z,6.63
2023-01-27T17:13:34.555Z,4.07
2023-01-27T17:16:05.533Z,4.50
2023-01-27T17:18:50.923Z,5.68
2023-01-27T17:21:53.223Z,7.50
2023-01-27T17:24:27.692Z,4.88
2023-01-27T17:27:09.457Z,5.47
2023-01-27T17:29:44.272Z,4.65
2023-01-27T17:32:25.950Z,4.50
2023-01-27T17:34:56.377Z,4.68
2023-01-27T17:37:24.849Z,4.82
2023-01-27T17:39:59.283Z,4.80
2023-01-27T17:42:31.669Z,4.50
2023-01-27T17:45:26.652Z,4.43
2023-01-27T17:47:54.437Z,3.90
2023-01-27T17:50:24.888Z,5.00
2023-01-27T17:52:55.916Z,4.03
2023-01-27T17:55:25.402Z,4.95
2023-01-27T17:58:11.181Z,4.00
2023-01-27T18:00:44.249Z,5.38
2023-01-27T18:03:22.892Z,3.80
2023-01-27T18:05:53.989Z,3.80
2023-01-27T18:08:24.097Z,3.42
2023-01-27T18:10:51.865Z,3.55
2023-01-27T18:13:18.845Z,3.90
2023-01-27T18:15:59.375Z,3.30
2023-01-27T18:18:30.105Z,3.60
2023-01-27T18:21:09.029Z,2.42
2023-01-27T18:23:45.137Z,1.80
2023-01-27T18:26:32.116Z,3.72
2023-01-27T18:29:07.808Z,3.65
2023-01-27T18:31:37.986Z,2.80
2023-01-27T18:34:04.823Z,2.20
2023-01-27T18:36:39.103Z,2.17
2023-01-27T18:39:29.397Z,2.60
2023-01-27T18:41:56.596Z,2.60
2023-01-27T18:44:27.348Z,2.63
2023-01-27T18:47:12.161Z,4.20
2023-01-27T18:49:39.362Z,3.63
2023-01-27T18:52:14.040Z,2.63
2023-01-27T18:54:41.485Z,4.00
2023-01-27T18:57:08.346Z,3.90
2023-01-27T18:59:35.376Z,3.50
2023-01-27T19:02:04.741Z,3.38
2023-01-27T19:04:32.575Z,2.30
2023-01-27T19:07:00.268Z,2.53
2023-01-27T19:09:27.255Z,2.65
2023-01-27T19:11:57.215Z,2.88
2023-01-27T19:14:24.199Z,2.60
2023-01-27T19:16:51.051Z,2.78
2023-01-27T19:19:18.047Z,3.30
2023-01-27T19:21:45.077Z,4.50
2023-01-27T19:24:12.191Z,4.28
2023-01-27T19:26:39.309Z,3.22
2023-01-27T19:29:06.463Z,3.08
2023-01-27T19:31:33.745Z,4.95
2023-01-27T19:34:00.785Z,7.65
2023-01-27T19:36:27.736Z,4.22
2023-01-27T19:39:02.525Z,5.40
2023-01-27T19:41:29.738Z,5.65
2023-01-27T19:43:57.110Z,5.43
2023-01-27T19:46:24.097Z,4.93
2023-01-27T19:48:51.953Z,3.60
2023-01-27T19:51:19.543Z,6.30
2023-01-27T19:53:46.738Z,5.55
2023-01-27T19:56:20.351Z,5.15
2023-01-27T19:58:51.857Z,4.38
2023-01-27T20:01:21.571Z,3.72
2023-01-27T20:03:49.539Z,4.38
2023-01-27T20:06:27.025Z,5.20
2023-01-27T20:08:57.299Z,4.72
2023-01-27T20:11:40.387Z,5.82
2023-01-27T20:14:15.849Z,5.82
2023-01-27T20:16:43.729Z,5.63
2023-01-27T20:19:17.477Z,4.45
2023-01-27T20:21:47.377Z,6.35
2023-01-27T20:24:19.597Z,5.60
2023-01-27T20:26:47.265Z,5.33
2023-01-27T20:29:14.465Z,4.43
2023-01-27T20:31:42.443Z,7.35
2023-01-27T20:34:09.425Z,8.15
2023-01-27T20:36:36.661Z,5.95
2023-01-27T20:39:03.828Z,7.70
2023-01-27T20:41:30.718Z,5.63
2023-01-27T20:44:00.475Z,7.40
2023-01-27T20:46:29.119Z,7.90
2023-01-27T20:48:58.284Z,7.80
2023-01-27T20:51:25.149Z,6.07
2023-01-27T20:53:52.016Z,6.45
2023-01-27T20:56:22.648Z,7.78
2023-01-27T20:58:49.921Z,8.27
2023-01-27T21:01:20.189Z,5.97
2023-01-27T21:03:48.099Z,8.52
2023-01-27T21:06:17.876Z,7.47
2023-01-27T21:08:47.006Z,9.02
2023-01-27T21:11:16.108Z,22.90
2023-01-27T21:13:43.255Z,7.85
2023-01-27T21:16:10.625Z,9.88
2023-01-27T21:18:37.622Z,8.45
2023-01-27T21:21:05.291Z,7.82
2023-01-27T21:23:34.749Z,8.05
2023-01-27T21:26:09.493Z,8.80
2023-01-27T21:28:36.839Z,8.98
2023-01-27T21:31:16.236Z,7.70
2023-01-27T21:33:48.463Z,9.55
2023-01-27T21:36:15.824Z,12.68
2023-01-27T21:38:42.830Z,11.65
2023-01-27T21:41:38.307Z,10.55
2023-01-27T21:44:34.873Z,10.43
2023-01-27T21:47:02.606Z,6.88
2023-01-27T21:49:29.595Z,6.65
2023-01-27T21:51:56.645Z,9.65
2023-01-27T21:54:23.717Z,9.00
2023-01-27T21:56:50.651Z,8.30
2023-01-27T21:59:18.287Z,8.32
2023-01-27T22:01:45.471Z,10.48
2023-01-27T22:04:12.394Z,10.20
2023-01-27T22:06:39.424Z,11.65
2023-01-27T22:09:06.650Z,8.32
2023-01-27T22:11:33.516Z,9.48
2023-01-27T22:14:00.417Z,9.30
2023-01-27T22:16:27.425Z,8.52
2023-01-27T22:18:54.349Z,10.38
2023-01-27T22:21:21.286Z,11.88
2023-01-27T22:23:48.261Z,10.93
2023-01-27T22:26:15.275Z,9.27
2023-01-27T22:28:44.646Z,8.10
2023-01-27T22:31:11.634Z,11.43
2023-01-27T22:33:38.675Z,9.43
2023-01-27T22:36:07.274Z,11.73
2023-01-27T22:38:39.280Z,11.38
2023-01-27T22:41:06.630Z,9.27
2023-01-27T22:43:34.129Z,10.02
2023-01-27T22:46:03.755Z,10.07
2023-01-27T22:48:31.779Z,12.10
2023-01-27T22:51:04.397Z,8.38
2023-01-27T22:53:32.052Z,9.88
2023-01-27T22:56:02.300Z,7.22
2023-01-27T22:58:30.464Z,10.60
2023-01-27T23:00:58.130Z,8.80
2023-01-27T23:06:10.445Z,7.57
2023-01-27T23:08:37.319Z,9.63
2023-01-27T23:11:06.664Z,9.35
2023-01-27T23:13:35.071Z,9.48
2023-01-27T23:16:02.107Z,8.13
2023-01-27T23:18:28.995Z,9.10
2023-01-27T23:21:02.585Z,8.77
2023-01-27T23:23:29.510Z,9.43
2023-01-27T23:25:56.370Z,10.00
2023-01-27T23:28:23.333Z,11.60
2023-01-27T23:30:54.368Z,10.50
2023-01-27T23:33:21.628Z,11.15
2023-01-27T23:35:48.870Z,6.90
2023-01-27T23:38:31.500Z,8.70
2023-01-27T23:43:33.707Z,6.55
2023-01-27T23:46:01.034Z,6.63
2023-01-27T23:48:28.023Z,4.85
2023-01-27T23:50:55.420Z,4.00
2023-01-27T23:53:22.744Z,3.30
2023-01-27T23:55:58.103Z,3.47
2023-01-27T23:58:26.244Z,3.03
